Terminal Aerodrome Forecast
Issued by NWS

Home | Current Version | Previous Version | Text Only | Print | Product List | Glossary On
Versions: 1 2 3 4 5 6 7 8 9 10 11 12 13 14 15 16 17 18 19
000
FTUS43 KGRB 240900 AAB
TAFMTW
TAF AMD
KMTW 240914Z 2409/2506 27003KT 5SM BR SCT005 OVC014
      TEMPO 2409/2413 3SM BR BKN005
     FM241400 24003KT 5SM BR BKN008
     FM241800 23004KT P6SM BKN025
     FM242100 22005KT P6SM SCT025
     FM250300 18004KT 5SM BR SCT100=

USA.gov is the U.S. government's official web portal to all federal, state and local government web resources and services.